Rio Lucio, New Mexico
Current Conditions -  °F | °C
As of 7:55 PM on Tuesday 21 Oct 2014 (Local Time) from KSKX Reporting Station
Broken Clouds Broken Clouds  
Wind Chill: 46°   Ceiling: 3800
Heat Index: 48°   Visibility: 10mi
Dew Point: 37°   Wind: 5mph
Humidity: 66%   Direction: 240°WSW
Pressure: 30.16"   Gusts: NA
Location:  36.1709°N, 105.75°W
Report Text: KSKX 220155Z AUTO 24004KT 10SM BKN038 BKN055 09/03 A3016 RMK AO1
Loading
Personal Weather Stations






























Interactive Weather Map
Tropical Storm Tracking
New forecast layout! Learn more

10-Day Weather Forecast

Advertisements
Track Severe Weather on mobile